Cole Grade (215) Station Data

Red Flag Warning: No
Fire Weather Zone: 250
SDGE Region: North East
Lat/Lon: 33.285/-117.016

Observations

Time Wind Speed/Gust Temp(F) RH Fuel Moist Fuel Temp(F) Dewpt(F) Tmax(F) Tmin(F) Accum Precip 10-min Precip SL Press(mb)
3/29 8:00am 65 2 G 4 65° 21% - - 24° 64.9° 54.7° - - 1018.0
3/29 7:50am 41 1 G 3 65° 19% - - 21° 64.7° 54.7° - - 1018.0
3/29 7:40am 62 1 G 2 64° 18% - - 20° 64.7° 54.7° - - 1018.0
3/29 7:30am 10 2 G 3 64° 19% - - 21° 64.7° 54.7° - - 1018.0
3/29 7:20am 22 2 G 4 62° 21% - - 22° 64.7° 54.7° - - 1018.0
3/29 7:10am 31 4 G 6 62° 22% - - 22° 64.7° 54.7° - - 1017.0
3/29 7:00am 46 4 G 6 62° 22% - - 22° 64.7° 54.7° - - 1017.0
3/29 6:50am 83 1 G 3 63° 19% - - 20° 64.7° 54.7° - - 1017.0
3/29 6:40am 100 3 G 5 64° 18% - - 19° 64.7° 54.7° - - 1017.0
3/29 6:30am 123 3 G 6 64° 18% - - 19° 64.4° 54.7° - - 1017.0
3/29 6:20am 119 4 G 6 63° 19% - - 20° 64.4° 54.7° - - 1017.0
3/29 6:10am 116 4 G 6 63° 20% - - 21° 64.4° 54.7° - - 1017.0
3/29 6:00am 123 3 G 5 63° 21% - - 22° 64.4° 54.7° - - 1017.0
3/29 5:50am 86 2 G 3 61° 23% - - 23° 63.5° 54.7° - - 1017.0
3/29 5:40am 28 4 G 6 60° 26% - - 25° 63.2° 54.7° - - 1017.0
3/29 5:30am 40 5 G 8 61° 24% - - 24° 63.2° 54.7° - - 1017.0
3/29 5:20am 63 4 G 6 62° 22% - - 24° 63.2° 54.7° - - 1017.0
3/29 5:10am 64 3 G 5 62° 23% - - 24° 62.7° 54.7° - - 1017.0
3/29 5:00am 99 3 G 6 61° 25% - - 26° 61.8° 54.7° - - 1017.0
3/29 4:50am 85 2 G 5 61° 28% - - 28° 61.4° 54.7° - - 1017.0
3/29 4:40am 80 2 G 4 60° 32% - - 30° 61.3° 54.7° - - 1017.0
3/29 4:30am 95 2 G 3 61° 34% - - 32° 61.3° 54.7° - - 1017.0
3/29 4:20am 45 2 G 3 60° 36% - - 33° 61.3° 54.7° - - 1017.0
3/29 4:10am 42 2 G 4 61° 37% - - 34° 61.3° 54.7° - - 1017.0
3/29 4:00am 42 1 G 2 61° 37% - - 34° 61.3° 54.7° - - 1017.0
3/29 3:50am 55 2 G 3 61° 36% - - 34° 61.3° 54.7° - - 1017.0
3/29 3:40am 62 2 G 3 60° 37% - - 34° 61.3° 54.7° - - 1017.0
3/29 3:30am 58 3 G 5 60° 38% - - 34° 61.3° 54.7° - - 1018.0
3/29 3:20am 45 1 G 4 61° 38% - - 35° 61.3° 54.7° - - 1017.0
3/29 3:10am 74 0 G 2 60° 38% - - 35° 61.3° 54.7° - - 1017.0
3/29 3:00am 43 1 G 2 60° 36% - - 33° 61.3° 54.7° - - 1017.0
3/29 2:50am 36 1 G 3 61° 35% - - 33° 61.3° 54.7° - - 1017.0
3/29 2:40am 43 1 G 3 60° 36% - - 33° 61.3° 54.7° - - 1017.0
3/29 2:30am 38 3 G 5 59° 36% - - 32° 61.3° 54.7° - - 1018.0
3/29 2:20am 36 4 G 6 60° 36% - - 33° 61.3° 54.7° - - 1018.0
3/29 2:10am 37 3 G 5 60° 37% - - 34° 61.3° 54.7° - - 1018.0
3/29 2:00am 49 3 G 4 59° 40% - - 34° 61.3° 54.7° - - 1018.0
3/29 1:50am 42 2 G 4 57° 44% - - 35° 61.3° 54.7° - - 1018.0
3/29 1:40am 57 4 G 7 58° 41% - - 34° 61.3° 54.7° - - 1018.0
3/29 1:30am 39 3 G 5 57° 45% - - 35° 61.3° 54.7° - - 1018.0
3/29 1:20am 17 3 G 9 60° 42% - - 37° 61.3° 57.2° - - 1018.0
3/29 1:10am 278 1 G 4 61° 40% - - 36° 61.3° 58.4° - - 1018.0
3/29 1:00am 66 2 G 4 60° 39% - - 35° 61.3° 58.4° - - 1018.0
3/29 12:50am 47 4 G 5 60° 41% - - 36° 61.3° 58.4° - - 1018.0
3/29 12:40am 46 2 G 6 61° 42% - - 37° 61.3° 58.4° - - 1018.0
3/29 12:30am 34 3 G 5 60° 43% - - 37° 60.5° 58.4° - - 1018.0
3/29 12:20am 41 4 G 5 59° 44% - - 37° 60.4° 58.4° - - 1018.0
3/29 12:10am 55 3 G 5 60° 42% - - 37° 60.4° 59.7° - - 1018.0
3/29 12:00am 93 1 G 3 60° 43% - - 37° 71.3° 46.1° - - 1018.0
3/28 11:50pm 55 0 G 2 60° 43% - - 37° 71.3° 46.1° - - 1018.0
3/28 11:40pm 345 1 G 1 59° 43% - - 37° 71.3° 46.1° - - 1018.0
3/28 11:30pm 231 1 G 1 60° 41% - - 36° 71.3° 46.1° - - 1018.0
3/28 11:20pm 283 1 G 3 60° 41% - - 36° 71.3° 46.1° - - 1018.0
3/28 11:10pm 0 0 G 0 61° 39% - - 36° 71.3° 46.1° - - 1018.0
3/28 11:00pm 33 2 G 3 61° 38% - - 35° 71.3° 46.1° - - 1018.0
3/28 10:50pm 68 2 G 3 61° 38% - - 35° 71.3° 46.1° - - 1018.0
3/28 10:40pm 64 2 G 3 60° 40% - - 36° 71.3° 46.1° - - 1018.0
3/28 10:30pm 104 1 G 3 59° 42% - - 36° 71.3° 46.1° - - 1018.0
3/28 10:20pm 60 3 G 5 59° 40% - - 35° 71.3° 46.1° - - 1018.0
3/28 10:10pm 58 3 G 4 60° 39% - - 35° 71.3° 46.1° - - 1018.0
3/28 10:00pm 117 1 G 2 59° 40% - - 35° 71.3° 46.1° - - 1018.0
3/28 9:50pm 112 1 G 2 59° 39% - - 34° 71.3° 46.1° - - 1018.0
3/28 9:40pm 69 2 G 3 59° 37% - - 33° 71.3° 46.1° - - 1018.0
3/28 9:30pm 85 2 G 4 59° 39% - - 34° 71.3° 46.1° - - 1018.0
3/28 9:20pm 118 2 G 3 59° 40% - - 34° 71.3° 46.1° - - 1018.0
3/28 9:10pm 137 3 G 4 59° 38% - - 34° 71.3° 46.1° - - 1018.0
3/28 9:00pm 170 3 G 3 60° 36% - - 33° 71.3° 46.1° - - 1017.0
3/28 8:50pm 172 3 G 4 59° 37% - - 33° 71.3° 46.1° - - 1018.0
3/28 8:40pm 174 2 G 3 59° 37% - - 33° 71.3° 46.1° - - 1018.0
3/28 8:30pm 205 3 G 4 59° 37% - - 33° 71.3° 46.1° - - 1017.0
3/28 8:20pm 210 2 G 3 60° 36% - - 33° 71.3° 46.1° - - 1017.0
3/28 8:10pm 192 2 G 3 60° 36% - - 33° 71.3° 46.1° - - 1017.0
3/28 8:00pm 192 2 G 3 59° 39% - - 34° 71.3° 46.1° - - 1017.0
3/28 7:50pm 199 2 G 3 59° 39% - - 35° 71.3° 46.1° - - 1017.0
3/28 7:40pm 201 3 G 3 60° 37% - - 34° 71.3° 46.1° - - 1017.0
3/28 7:30pm 207 2 G 4 60° 37% - - 34° 71.3° 46.1° - - 1017.0
3/28 7:20pm 228 2 G 4 60° 38% - - 34° 71.3° 46.1° - - 1016.0
3/28 7:10pm 217 3 G 5 61° 37% - - 34° 71.3° 46.1° - - 1016.0
3/28 7:00pm 236 3 G 7 61° 36% - - 34° 71.3° 46.1° - - 1016.0
3/28 6:50pm 212 4 G 6 62° 35% - - 34° 71.3° 46.1° - - 1016.0
3/28 6:40pm 247 3 G 5 63° 33% - - 33° 71.3° 46.1° - - 1016.0
3/28 6:30pm 250 4 G 7 63° 32% - - 33° 71.3° 46.1° - - 1016.0
3/28 6:20pm 223 4 G 7 64° 33% - - 34° 71.3° 46.1° - - 1016.0
3/28 6:10pm 240 6 G 9 63° 34% - - 35° 71.3° 46.1° - - 1016.0
3/28 6:00pm 243 7 G 10 64° 32% - - 33° 71.3° 46.1° - - 1016.0
3/28 5:50pm 255 6 G 9 64° 33% - - 34° 71.3° 46.1° - - 1016.0
3/28 5:40pm 263 6 G 11 64° 33% - - 34° 71.3° 46.1° - - 1015.0
3/28 5:30pm 267 6 G 11 65° 35% - - 36° 71.3° 46.1° - - 1015.0
3/28 5:20pm 264 8 G 12 65° 37% - - 38° 71.3° 46.1° - - 1015.0
3/28 5:10pm 270 9 G 12 65° 37% - - 38° 71.3° 46.1° - - 1015.0
3/28 5:00pm 268 8 G 13 66° 37% - - 39° 71.3° 46.1° - - 1015.0
3/28 4:50pm 265 9 G 14 67° 36% - - 39° 71.3° 46.1° - - 1015.0
3/28 4:40pm 265 10 G 14 67° 33% - - 37° 71.3° 46.1° - - 1015.0
3/28 4:30pm 263 8 G 14 68° 33% - - 38° 71.3° 46.1° - - 1014.0
3/28 4:20pm 260 7 G 12 68° 32% - - 38° 71.3° 46.1° - - 1015.0
3/28 4:10pm 271 7 G 12 69° 34% - - 39° 71.3° 46.1° - - 1015.0
3/28 4:00pm 266 7 G 13 69° 33% - - 39° 71.3° 46.1° - - 1014.0
3/28 3:50pm 252 7 G 12 70° 30% - - 37° 71.3° 46.1° - - 1014.0
3/28 3:40pm 262 6 G 12 70° 29% - - 37° 71.3° 46.1° - - 1015.0
3/28 3:30pm 271 6 G 11 69° 29% - - 36° 71.3° 46.1° - - 1015.0
3/28 3:20pm 257 7 G 11 70° 28% - - 36° 71.3° 46.1° - - 1015.0
3/28 3:10pm 258 7 G 12 70° 27% - - 35° 71.3° 46.1° - - 1015.0
3/28 3:00pm 269 6 G 11 70° 29% - - 36° 71.3° 46.1° - - 1015.0
3/28 2:50pm 270 8 G 14 69° 29% - - 35° 71.3° 46.1° - - 1015.0
3/28 2:40pm 284 6 G 11 70° 28% - - 35° 71.3° 46.1° - - 1015.0
3/28 2:30pm 264 7 G 12 69° 26% - - 33° 71.3° 46.1° - - 1015.0
3/28 2:20pm 286 5 G 13 69° 26% - - 34° 71.3° 46.1° - - 1016.0
3/28 2:10pm 269 6 G 12 70° 25% - - 33° 71.3° 46.1° - - 1016.0
3/28 2:00pm 257 7 G 12 69° 22% - - 29° 69.9° 46.1° - - 1016.0
3/28 1:50pm 253 7 G 14 69° 22% - - 29° 69.6° 46.1° - - 1016.0
3/28 1:40pm 263 7 G 15 69° 21% - - 28° 69.6° 46.1° - - 1016.0
3/28 1:30pm 261 6 G 12 69° 22% - - 28° 69.6° 46.1° - - 1016.0
3/28 1:20pm 266 6 G 11 69° 22% - - 28° 69.6° 46.1° - - 1016.0
3/28 1:10pm 271 6 G 11 68° 21% - - 27° 69.2° 46.1° - - 1017.0
3/28 1:00pm 237 5 G 10 68° 22% - - 28° 69.2° 46.1° - - 1017.0
3/28 12:50pm 284 4 G 10 68° 22% - - 28° 69.2° 46.1° - - 1017.0
3/28 12:40pm 256 3 G 6 67° 23% - - 28° 68.2° 46.1° - - 1017.0
3/28 12:30pm 275 4 G 10 67° 24% - - 29° 68.2° 46.1° - - 1017.0
3/28 12:20pm 315 2 G 7 67° 25% - - 29° 67.4° 46.1° - - 1017.0
3/28 12:10pm 271 4 G 8 67° 25% - - 29° 67.2° 46.1° - - 1017.0
3/28 12:00pm 245 6 G 10 66° 25% - - 29° 66.7° 46.1° - - 1017.0
3/28 11:50am 264 4 G 11 66° 26% - - 30° 66.7° 46.1° - - 1017.0
3/28 11:40am 273 3 G 7 66° 27% - - 30° 66.6° 46.1° - - 1017.0
3/28 11:30am 303 3 G 6 65° 28% - - 31° 65.4° 46.1° - - 1018.0
3/28 11:20am 347 2 G 7 65° 31% - - 34° 65.1° 46.1° - - 1018.0
3/28 11:10am 54 3 G 5 64° 36% - - 36° 64.8° 46.1° - - 1018.0
3/28 11:00am 337 2 G 5 63° 33% - - 33° 63.7° 46.1° - - 1018.0
3/28 10:50am 348 4 G 7 62° 34% - - 34° 63.1° 46.1° - - 1018.0
3/28 10:40am 315 4 G 8 62° 36% - - 35° 63.1° 46.1° - - 1018.0
3/28 10:30am 265 2 G 4 62° 37% - - 36° 62.8° 46.1° - - 1018.0
3/28 10:20am 225 3 G 7 61° 38% - - 35° 61.6° 46.1° - - 1018.0
3/28 10:10am 248 4 G 6 61° 42% - - 38° 61.5° 46.1° - - 1018.0
3/28 10:00am 289 2 G 6 61° 41% - - 37° 61.5° 46.1° - - 1018.0
3/28 9:50am 278 1 G 4 60° 42% - - 37° 61° 46.1° - - 1018.0
3/28 9:40am 245 2 G 3 59° 43% - - 37° 60° 46.1° - - 1018.0
3/28 9:30am 237 2 G 4 59° 43% - - 36° 59.3° 46.1° - - 1018.0
3/28 9:20am 276 2 G 4 58° 45% - - 37° 58.4° 46.1° - - 1018.0
3/28 9:10am 243 3 G 4 57° 50% - - 39° 57.2° 46.1° - - 1018.0
3/28 9:00am 242 2 G 4 56° 53% - - 39° 56.8° 46.1° - - 1018.0
3/28 8:50am 224 2 G 3 56° 53% - - 39° 55.9° 46.1° - - 1018.0
3/28 8:40am 218 2 G 3 55° 55% - - 39° 55.7° 46.1° - - 1018.0
3/28 8:30am 240 1 G 2 55° 55% - - 40° 55.6° 46.1° - - 1018.0
3/28 8:20am 271 0 G 2 55° 54% - - 38° 55.5° 46.1° - - 1018.0
3/28 8:10am 107 1 G 2 53° 57% - - 38° 54° 46.1° - - 1018.0
3/28 8:00am 214 0 G 2 53° 55% - - 38° 53.7° 46.1° - - 1018.0
3/28 7:50am 90 2 G 3 52° 56% - - 37° 53° 46.1° - - 1018.0
3/28 7:40am 61 3 G 4 51° 61% - - 38° 52.1° 46.1° - - 1018.0
3/28 7:30am 74 2 G 3 49° 64% - - 38° 52.1° 46.1° - - 1018.0
3/28 7:20am 52 3 G 4 50° 64% - - 38° 52.1° 46.1° - - 1018.0
3/28 7:10am 131 1 G 3 50° 64% - - 38° 52.1° 46.1° - - 1018.0
3/28 7:00am 176 0 G 2 50° 65% - - 39° 52.1° 46.1° - - 1018.0
3/28 6:50am 233 1 G 2 49° 66% - - 39° 52.1° 46.1° - - 1018.0
3/28 6:40am 176 2 G 4 48° 67% - - 38° 52.1° 46.1° - - 1018.0
3/28 6:30am 168 1 G 4 48° 69% - - 38° 52.1° 46.1° - - 1018.0
3/28 6:20am 228 1 G 5 47° 72% - - 38° 52.1° 46.1° - - 1018.0
3/28 6:10am 71 2 G 5 51° 65% - - 39° 52.1° 47.7° - - 1018.0
3/28 6:00am 33 2 G 3 51° 67% - - 40° 52.1° 47.7° - - 1018.0